Time;durP1;ratioP1;P1;durP2;ratioP2;P2;SDS_P1;SDS_P2;PMS_P1;PMS_P2;Temp;Humidity;BMP_temperature;BMP_pressure;BME280_temperature;BME280_humidity;BME280_pressure;Samples;Min_cycle;Max_cycle;Signal;HPM_P1;HPM_P2
2023/04/09 00:01:49;;;;;;;15.00;9.50;;;;;;;;;;12845501;23;20044;-79
2023/04/09 00:06:52;;;;;;;14.52;8.70;;;;;;;;;;12846505;23;20285;-79
2023/04/09 00:11:53;;;;;;;17.83;10.37;;;;;;;;;;12857861;23;20030;-80
2023/04/09 00:16:53;;;;;;;14.50;9.02;;;;;;;;;;12877467;23;20027;-77
2023/04/09 00:21:54;;;;;;;13.63;8.77;;;;;;;;;;12891229;23;20013;-80
2023/04/09 00:26:54;;;;;;;14.07;9.73;;;;;;;;;;12912966;22;19992;-81
2023/04/09 00:31:54;;;;;;;15.20;9.93;;;;;;;;;;12918776;22;20335;-78
2023/04/09 00:36:55;;;;;;;14.05;8.25;;;;;;;;;;12890233;22;20013;-77
2023/04/09 00:41:57;;;;;;;14.77;9.27;;;;;;;;;;12846599;23;20009;-79
2023/04/09 00:47:00;;;;;;;15.90;9.68;;;;;;;;;;12840903;23;20108;-75
2023/04/09 00:52:02;;;;;;;18.10;9.98;;;;;;;;;;12840340;23;20436;-77
2023/04/09 00:57:02;;;;;;;13.90;8.93;;;;;;;;;;12840451;23;20095;-77
2023/04/09 01:02:04;;;;;;;15.27;9.98;;;;;;;;;;12843278;23;20070;-78
2023/04/09 01:07:28;;;;;;;15.70;9.80;;;;;;;;;;12846965;23;20008;-83
2023/04/09 01:12:31;;;;;;;17.23;9.93;;;;;;;;;;12853663;23;20028;-78
2023/04/09 01:17:51;;;;;;;14.93;9.57;;;;;;;;;;12842433;23;20024;-80
2023/04/09 01:22:58;;;;;;;17.15;10.45;;;;;;;;;;12842988;23;20020;-78
2023/04/09 01:28:18;;;;;;;14.60;9.73;;;;;;;;;;12843093;23;20087;-79
2023/04/09 01:33:20;;;;;;;15.68;9.75;;;;;;;;;;12842421;23;20025;-76
2023/04/09 01:38:22;;;;;;;15.57;10.17;;;;;;;;;;12842269;23;20012;-79
2023/04/09 01:43:24;;;;;;;18.33;10.63;;;;;;;;;;12815562;23;20385;-76
2023/04/09 01:48:25;;;;;;;15.55;9.50;;;;;;;;;;12843088;23;20373;-78
2023/04/09 01:53:27;;;;;;;18.50;11.10;;;;;;;;;;12844706;23;20345;-77
2023/04/09 01:58:29;;;;;;;15.85;9.30;;;;;;;;;;12844579;23;20085;-80
2023/04/09 02:03:38;;;;;;;17.85;11.10;;;;;;;;;;12821672;23;20029;-82
2023/04/09 02:08:40;;;;;;;16.25;9.95;;;;;;;;;;12844318;23;20489;-78
2023/04/09 02:13:42;;;;;;;17.13;10.43;;;;;;;;;;12846685;23;20106;-80
2023/04/09 02:18:55;;;;;;;18.58;11.50;;;;;;;;;;12845402;23;20040;-79
2023/04/09 02:23:55;;;;;;;19.43;12.03;;;;;;;;;;12843452;23;20087;-78
2023/04/09 02:28:56;;;;;;;17.35;11.07;;;;;;;;;;12851525;23;20615;-81
2023/04/09 02:33:59;;;;;;;18.10;11.50;;;;;;;;;;12900954;22;20047;-84
2023/04/09 02:38:59;;;;;;;16.83;10.47;;;;;;;;;;12913823;22;20013;-78
2023/04/09 02:44:00;;;;;;;16.75;10.02;;;;;;;;;;12916780;22;20024;-77
2023/04/09 02:49:01;;;;;;;16.92;10.25;;;;;;;;;;12909992;22;20032;-81
2023/04/09 02:54:03;;;;;;;16.83;10.48;;;;;;;;;;12899039;23;20119;-76
2023/04/09 02:59:05;;;;;;;14.00;9.10;;;;;;;;;;12860354;23;20032;-80
2023/04/09 03:04:05;;;;;;;16.25;10.02;;;;;;;;;;12854616;23;20726;-77
2023/04/09 03:09:06;;;;;;;19.45;11.68;;;;;;;;;;12852263;23;20016;-78
2023/04/09 03:14:07;;;;;;;18.98;10.77;;;;;;;;;;12851297;23;20112;-80
2023/04/09 03:19:09;;;;;;;20.63;11.85;;;;;;;;;;12855073;23;20044;-81
2023/04/09 03:24:12;;;;;;;20.05;11.77;;;;;;;;;;12878706;23;20012;-85
2023/04/09 03:29:15;;;;;;;16.92;10.23;;;;;;;;;;12877306;23;20020;-83
2023/04/09 03:34:17;;;;;;;16.48;10.57;;;;;;;;;;12863435;23;20084;-80
2023/04/09 03:39:22;;;;;;;18.35;10.88;;;;;;;;;;12859728;23;20012;-76
2023/04/09 03:44:23;;;;;;;16.27;10.18;;;;;;;;;;12852936;23;20444;-75
2023/04/09 03:49:33;;;;;;;18.33;10.40;;;;;;;;;;12845565;23;20020;-78
2023/04/09 03:54:42;;;;;;;21.50;11.65;;;;;;;;;;12843134;23;20032;-79
2023/04/09 03:59:48;;;;;;;19.20;10.50;;;;;;;;;;12815793;23;20016;-79
2023/04/09 04:04:54;;;;;;;20.60;12.38;;;;;;;;;;12813787;23;20095;-76
2023/04/09 04:09:59;;;;;;;26.35;13.60;;;;;;;;;;12813650;23;20016;-76
2023/04/09 04:15:01;;;;;;;25.57;14.00;;;;;;;;;;12842503;23;20027;-77
2023/04/09 04:20:10;;;;;;;25.85;13.23;;;;;;;;;;12842014;23;20012;-83
2023/04/09 04:25:23;;;;;;;28.40;14.10;;;;;;;;;;12842314;23;20032;-77
2023/04/09 04:30:24;;;;;;;26.42;14.05;;;;;;;;;;12842327;23;20009;-77
2023/04/09 04:35:40;;;;;;;25.67;13.68;;;;;;;;;;12825835;23;20025;-77
2023/04/09 04:40:46;;;;;;;25.88;14.18;;;;;;;;;;12871405;23;20072;-75
2023/04/09 04:45:55;;;;;;;23.67;13.77;;;;;;;;;;12886160;23;20088;-74
2023/04/09 04:51:00;;;;;;;24.83;14.05;;;;;;;;;;12833472;23;20016;-73
2023/04/09 04:56:11;;;;;;;25.70;13.48;;;;;;;;;;12857629;23;20158;-74
2023/04/09 05:01:15;;;;;;;22.63;12.73;;;;;;;;;;12822862;23;20374;-75
2023/04/09 05:06:17;;;;;;;25.08;12.25;;;;;;;;;;12843705;23;20024;-80
2023/04/09 05:11:20;;;;;;;29.52;14.48;;;;;;;;;;12816001;23;20494;-76
2023/04/09 05:16:21;;;;;;;24.23;13.45;;;;;;;;;;12816740;23;20019;-78
2023/04/09 05:21:30;;;;;;;24.30;14.25;;;;;;;;;;12841295;23;20020;-77
2023/04/09 05:26:32;;;;;;;26.10;14.73;;;;;;;;;;12841241;23;20020;-78
2023/04/09 05:31:35;;;;;;;23.55;12.98;;;;;;;;;;12840393;23;20029;-78
2023/04/09 05:36:41;;;;;;;23.73;11.73;;;;;;;;;;12825060;23;20504;-78
2023/04/09 05:41:43;;;;;;;23.52;14.02;;;;;;;;;;12842222;23;20027;-75
2023/04/09 05:47:02;;;;;;;23.77;13.02;;;;;;;;;;12844787;23;20087;-78
2023/04/09 05:52:10;;;;;;;20.08;12.38;;;;;;;;;;12841288;23;20021;-84
2023/04/09 05:57:11;;;;;;;22.40;12.70;;;;;;;;;;12814956;23;20075;-80
2023/04/09 06:02:15;;;;;;;21.50;12.05;;;;;;;;;;12816503;23;20024;-79
2023/04/09 06:07:16;;;;;;;19.58;12.35;;;;;;;;;;12838693;23;20070;-76
2023/04/09 06:12:17;;;;;;;24.65;14.02;;;;;;;;;;12837004;23;20028;-81
2023/04/09 06:17:17;;;;;;;20.13;12.13;;;;;;;;;;12840867;23;20009;-82
2023/04/09 06:22:17;;;;;;;20.37;12.30;;;;;;;;;;12841744;23;20275;-77
2023/04/09 06:27:18;;;;;;;18.88;12.68;;;;;;;;;;12841226;23;20009;-77
2023/04/09 06:32:18;;;;;;;18.73;12.60;;;;;;;;;;12841932;23;20013;-83
2023/04/09 06:37:21;;;;;;;20.20;12.48;;;;;;;;;;12840869;23;20009;-80
2023/04/09 06:42:21;;;;;;;21.30;11.73;;;;;;;;;;12857026;23;20044;-77
2023/04/09 06:47:29;;;;;;;19.08;12.07;;;;;;;;;;12873030;23;20088;-79
2023/04/09 06:52:29;;;;;;;18.60;12.47;;;;;;;;;;12887694;23;20025;-80
2023/04/09 06:57:30;;;;;;;18.98;12.68;;;;;;;;;;12883036;22;20335;-78
2023/04/09 07:02:30;;;;;;;20.23;12.52;;;;;;;;;;12875548;23;20768;-78
2023/04/09 07:07:32;;;;;;;18.97;12.80;;;;;;;;;;12842249;23;20088;-78
2023/04/09 07:12:34;;;;;;;18.55;12.85;;;;;;;;;;12838108;23;20256;-76
2023/04/09 07:17:35;;;;;;;16.88;11.82;;;;;;;;;;12841279;23;20521;-76
2023/04/09 07:22:35;;;;;;;16.02;11.35;;;;;;;;;;12841817;23;20100;-80
2023/04/09 07:27:36;;;;;;;14.70;10.90;;;;;;;;;;12842405;23;20043;-79
2023/04/09 07:32:37;;;;;;;16.05;11.35;;;;;;;;;;12842526;23;20279;-78
2023/04/09 07:37:37;;;;;;;15.25;11.85;;;;;;;;;;12847548;23;20012;-79
2023/04/09 07:42:38;;;;;;;16.25;11.38;;;;;;;;;;12814443;23;20016;-79
2023/04/09 07:47:40;;;;;;;15.70;10.77;;;;;;;;;;12843592;23;20553;-78
2023/04/09 07:52:40;;;;;;;14.98;10.07;;;;;;;;;;12843589;23;20020;-78
2023/04/09 07:57:41;;;;;;;13.82;10.27;;;;;;;;;;12841643;23;20009;-77
2023/04/09 08:02:42;;;;;;;12.48;9.80;;;;;;;;;;12845974;23;20112;-78
2023/04/09 08:07:42;;;;;;;12.23;9.38;;;;;;;;;;12842458;23;20086;-75
2023/04/09 08:12:43;;;;;;;13.90;10.07;;;;;;;;;;12846097;23;20025;-77
2023/04/09 08:17:44;;;;;;;12.98;9.68;;;;;;;;;;12844687;23;20322;-77
2023/04/09 08:22:44;;;;;;;13.32;9.38;;;;;;;;;;12845352;23;20028;-77
2023/04/09 08:27:45;;;;;;;11.73;9.18;;;;;;;;;;12843388;23;20469;-80
2023/04/09 08:32:47;;;;;;;11.40;8.55;;;;;;;;;;12840271;23;20035;-78
2023/04/09 08:37:55;;;;;;;13.05;9.55;;;;;;;;;;12823430;23;20012;-77
2023/04/09 08:42:57;;;;;;;12.82;10.13;;;;;;;;;;12842831;23;20016;-78
2023/04/09 08:47:58;;;;;;;14.43;11.02;;;;;;;;;;12852212;23;20418;-79
2023/04/09 08:53:01;;;;;;;12.55;9.88;;;;;;;;;;12841062;23;20411;-78
2023/04/09 08:58:09;;;;;;;12.57;9.20;;;;;;;;;;12891763;23;20060;-79
2023/04/09 09:03:11;;;;;;;11.93;9.00;;;;;;;;;;12895446;23;20021;-78
2023/04/09 09:08:22;;;;;;;10.00;8.70;;;;;;;;;;12889427;23;20337;-77
2023/04/09 09:13:23;;;;;;;10.07;8.20;;;;;;;;;;12849445;23;20021;-78
2023/04/09 09:18:43;;;;;;;10.10;8.18;;;;;;;;;;12846541;23;20013;-80
2023/04/09 09:23:44;;;;;;;11.43;9.00;;;;;;;;;;12845751;23;20016;-79
2023/04/09 09:28:48;;;;;;;12.52;9.63;;;;;;;;;;12848716;23;20205;-77
2023/04/09 09:33:49;;;;;;;12.45;8.65;;;;;;;;;;12846409;23;20454;-81
2023/04/09 09:38:54;;;;;;;12.13;9.30;;;;;;;;;;12844037;23;20024;-78
2023/04/09 09:43:56;;;;;;;12.07;9.13;;;;;;;;;;12841851;23;20036;-79
2023/04/09 09:48:58;;;;;;;13.65;10.00;;;;;;;;;;12843250;23;20023;-80
2023/04/09 09:54:00;;;;;;;12.65;9.02;;;;;;;;;;12842840;23;20024;-78
2023/04/09 09:59:06;;;;;;;10.68;8.60;;;;;;;;;;12845707;23;20044;-77
2023/04/09 10:04:12;;;;;;;11.63;8.80;;;;;;;;;;12846481;23;20605;-79
2023/04/09 10:09:14;;;;;;;10.45;7.80;;;;;;;;;;12839761;23;20021;-80
2023/04/09 10:14:16;;;;;;;8.05;6.57;;;;;;;;;;12844693;23;20560;-78
2023/04/09 10:19:17;;;;;;;11.50;9.02;;;;;;;;;;12820177;23;20016;-84
2023/04/09 10:24:17;;;;;;;10.32;8.27;;;;;;;;;;12845027;23;20331;-81
2023/04/09 10:29:25;;;;;;;9.70;7.90;;;;;;;;;;12867489;23;20035;-86
2023/04/09 10:34:28;;;;;;;9.80;8.43;;;;;;;;;;12879593;23;20020;-80
2023/04/09 10:39:31;;;;;;;10.82;8.57;;;;;;;;;;12899946;22;19997;-81
2023/04/09 10:44:34;;;;;;;9.75;8.07;;;;;;;;;;12889850;23;20013;-80
2023/04/09 10:49:36;;;;;;;9.18;7.53;;;;;;;;;;12862545;23;20307;-80
2023/04/09 10:54:38;;;;;;;8.43;6.88;;;;;;;;;;12861571;23;20433;-80
2023/04/09 10:59:43;;;;;;;7.70;6.45;;;;;;;;;;12887033;23;20028;-81
2023/04/09 11:05:07;;;;;;;8.07;6.72;;;;;;;;;;12842473;23;20048;-79
2023/04/09 11:10:08;;;;;;;7.22;6.38;;;;;;;;;;12832379;23;20024;-82
2023/04/09 11:15:15;;;;;;;6.97;6.00;;;;;;;;;;12850700;23;20062;-80
2023/04/09 11:20:16;;;;;;;6.70;5.68;;;;;;;;;;12858359;23;20031;-78
2023/04/09 11:25:18;;;;;;;6.03;5.43;;;;;;;;;;12857663;23;20008;-82
2023/04/09 11:30:19;;;;;;;6.03;5.07;;;;;;;;;;12855853;23;20024;-78
2023/04/09 11:35:22;;;;;;;6.87;5.93;;;;;;;;;;12828168;23;20020;-80
2023/04/09 11:40:24;;;;;;;6.53;5.70;;;;;;;;;;12849545;23;20070;-79
2023/04/09 11:45:26;;;;;;;6.93;5.72;;;;;;;;;;12848213;23;20009;-83
2023/04/09 11:50:27;;;;;;;6.43;5.45;;;;;;;;;;12848863;23;20017;-79
2023/04/09 11:55:28;;;;;;;6.57;5.88;;;;;;;;;;12850134;23;20020;-78
2023/04/09 12:00:28;;;;;;;6.15;5.55;;;;;;;;;;12847823;23;20545;-81
2023/04/09 12:05:31;;;;;;;5.88;5.28;;;;;;;;;;12851179;23;20098;-80
2023/04/09 12:10:35;;;;;;;6.85;5.90;;;;;;;;;;12847490;23;20009;-81
2023/04/09 12:15:37;;;;;;;6.55;5.70;;;;;;;;;;12845383;23;20029;-81
2023/04/09 12:20:49;;;;;;;6.40;5.80;;;;;;;;;;12839649;23;20092;-82
2023/04/09 12:26:00;;;;;;;7.63;6.20;;;;;;;;;;12845532;23;20079;-81
2023/04/09 12:31:05;;;;;;;7.50;6.43;;;;;;;;;;12847015;23;20338;-81
2023/04/09 12:36:08;;;;;;;6.75;6.05;;;;;;;;;;12833114;23;20009;-81
2023/04/09 12:41:09;;;;;;;6.53;5.55;;;;;;;;;;12870523;23;20072;-81
2023/04/09 12:46:09;;;;;;;5.75;5.15;;;;;;;;;;12889936;23;20008;-81
2023/04/09 12:51:10;;;;;;;6.57;5.70;;;;;;;;;;12887897;23;20009;-82
2023/04/09 12:56:13;;;;;;;5.57;5.07;;;;;;;;;;12892082;22;20243;-80
2023/04/09 13:01:19;;;;;;;6.15;5.55;;;;;;;;;;12863445;23;20013;-82
2023/04/09 13:06:23;;;;;;;6.55;5.75;;;;;;;;;;12905127;22;20009;-80
2023/04/09 13:11:43;;;;;;;7.63;6.13;;;;;;;;;;12895578;22;20016;-81
2023/04/09 13:16:45;;;;;;;5.67;5.07;;;;;;;;;;12916481;22;20009;-80
2023/04/09 13:21:52;;;;;;;6.43;5.82;;;;;;;;;;12869797;23;20421;-80
2023/04/09 13:26:54;;;;;;;6.80;5.82;;;;;;;;;;12851379;23;20070;-79
2023/04/09 13:31:56;;;;;;;6.60;5.90;;;;;;;;;;12856401;23;20008;-79
2023/04/09 13:36:59;;;;;;;7.15;6.00;;;;;;;;;;12860288;23;20021;-79
2023/04/09 13:42:00;;;;;;;6.10;5.50;;;;;;;;;;12856481;23;20018;-79
2023/04/09 13:47:02;;;;;;;6.50;5.57;;;;;;;;;;12850284;23;20445;-79
2023/04/09 13:52:03;;;;;;;6.50;5.50;;;;;;;;;;12847465;23;20031;-79
2023/04/09 13:57:03;;;;;;;6.82;5.88;;;;;;;;;;12820412;23;20040;-80
2023/04/09 14:02:05;;;;;;;6.32;5.65;;;;;;;;;;12851198;23;20017;-81
2023/04/09 14:07:06;;;;;;;7.03;5.97;;;;;;;;;;12847205;23;20031;-83
2023/04/09 14:12:07;;;;;;;5.88;5.28;;;;;;;;;;12851441;23;20437;-80
2023/04/09 14:17:10;;;;;;;6.78;5.85;;;;;;;;;;12845236;23;20024;-79
2023/04/09 14:22:10;;;;;;;7.10;5.77;;;;;;;;;;12842903;23;20043;-81
2023/04/09 14:27:10;;;;;;;6.53;5.37;;;;;;;;;;12844595;23;20023;-85
2023/04/09 14:32:13;;;;;;;7.20;5.87;;;;;;;;;;12843597;23;20025;-80
2023/04/09 14:37:16;;;;;;;7.30;6.28;;;;;;;;;;12843386;23;20017;-78
2023/04/09 14:42:17;;;;;;;7.30;6.05;;;;;;;;;;12844660;23;20425;-81
2023/04/09 14:47:18;;;;;;;7.20;6.13;;;;;;;;;;12819403;23;20021;-82
2023/04/09 14:52:21;;;;;;;6.80;5.53;;;;;;;;;;12843988;23;20067;-85
2023/04/09 14:57:22;;;;;;;6.53;5.47;;;;;;;;;;12843713;23;20016;-79
2023/04/09 15:02:24;;;;;;;7.55;6.28;;;;;;;;;;12817696;23;20043;-79
2023/04/09 15:07:25;;;;;;;8.23;6.30;;;;;;;;;;12847288;23;20063;-79
2023/04/09 15:12:29;;;;;;;6.43;5.82;;;;;;;;;;12863743;23;20013;-81
2023/04/09 15:17:31;;;;;;;6.85;5.80;;;;;;;;;;12914560;22;19992;-80
2023/04/09 15:22:31;;;;;;;6.83;5.73;;;;;;;;;;12892070;22;20004;-78
2023/04/09 15:27:37;;;;;;;7.43;6.22;;;;;;;;;;12899859;22;20091;-79
2023/04/09 15:32:38;;;;;;;5.68;4.93;;;;;;;;;;12867728;23;20052;-78
2023/04/09 15:37:38;;;;;;;6.80;6.07;;;;;;;;;;12893187;23;20013;-83
2023/04/09 15:42:39;;;;;;;8.43;5.60;;;;;;;;;;12854159;23;20020;-80
2023/04/09 15:47:40;;;;;;;6.88;5.72;;;;;;;;;;12843978;23;20112;-79
2023/04/09 15:52:43;;;;;;;7.78;5.85;;;;;;;;;;12841602;23;20083;-79
2023/04/09 15:57:45;;;;;;;7.43;5.80;;;;;;;;;;12841485;23;20342;-78
2023/04/09 16:02:46;;;;;;;6.50;5.87;;;;;;;;;;12841325;23;20008;-81
2023/04/09 16:07:50;;;;;;;7.60;6.43;;;;;;;;;;12844076;23;20028;-79
2023/04/09 16:12:50;;;;;;;6.28;5.57;;;;;;;;;;12848603;23;20298;-79
2023/04/09 16:17:50;;;;;;;6.67;5.97;;;;;;;;;;12847917;23;20008;-78
2023/04/09 16:22:51;;;;;;;7.45;6.03;;;;;;;;;;12847006;23;20258;-79
2023/04/09 16:27:51;;;;;;;8.33;6.47;;;;;;;;;;12849392;23;20016;-79
2023/04/09 16:32:52;;;;;;;7.90;6.50;;;;;;;;;;12801012;23;20310;-80
2023/04/09 16:37:53;;;;;;;7.57;6.10;;;;;;;;;;12782357;23;20013;-78
2023/04/09 16:42:53;;;;;;;6.47;5.77;;;;;;;;;;12783063;23;20017;-78
2023/04/09 16:47:56;;;;;;;6.78;6.07;;;;;;;;;;12782844;23;20012;-79
2023/04/09 16:52:56;;;;;;;7.90;6.70;;;;;;;;;;12782309;23;20043;-78
2023/04/09 16:57:57;;;;;;;8.37;6.73;;;;;;;;;;12780872;23;20017;-80
2023/04/09 17:02:58;;;;;;;7.15;6.35;;;;;;;;;;12780833;23;20346;-80
2023/04/09 17:07:59;;;;;;;7.85;6.32;;;;;;;;;;12789944;23;20353;-78
2023/04/09 17:13:00;;;;;;;7.13;6.05;;;;;;;;;;12843980;23;20028;-79
2023/04/09 17:18:02;;;;;;;9.20;7.23;;;;;;;;;;12856853;23;20033;-78
2023/04/09 17:23:03;;;;;;;7.22;5.88;;;;;;;;;;12880407;22;20259;-81
2023/04/09 17:28:03;;;;;;;7.75;6.43;;;;;;;;;;12918128;22;20004;-77
2023/04/09 17:33:05;;;;;;;9.00;7.00;;;;;;;;;;12916510;22;20021;-77
2023/04/09 17:38:06;;;;;;;8.38;6.78;;;;;;;;;;12900471;23;20013;-78
2023/04/09 17:43:07;;;;;;;8.55;6.82;;;;;;;;;;12873497;23;20441;-77
2023/04/09 17:48:07;;;;;;;10.07;7.22;;;;;;;;;;12839743;23;20024;-79
2023/04/09 17:53:08;;;;;;;8.73;7.15;;;;;;;;;;12827285;23;20056;-81
2023/04/09 17:58:08;;;;;;;8.73;7.30;;;;;;;;;;12859532;23;20381;-78
2023/04/09 18:03:10;;;;;;;9.10;7.30;;;;;;;;;;12852863;23;20100;-80
2023/04/09 18:08:15;;;;;;;8.52;7.35;;;;;;;;;;12846355;23;20306;-80
2023/04/09 18:13:17;;;;;;;9.90;7.40;;;;;;;;;;12855416;23;20017;-82
2023/04/09 18:18:17;;;;;;;8.70;7.43;;;;;;;;;;12822576;23;20065;-78
2023/04/09 18:23:18;;;;;;;9.93;8.20;;;;;;;;;;12844148;23;20069;-80
2023/04/09 18:28:19;;;;;;;8.77;7.20;;;;;;;;;;12840674;23;20040;-82
2023/04/09 18:33:21;;;;;;;10.70;7.88;;;;;;;;;;12843418;23;20031;-81
2023/04/09 18:38:23;;;;;;;10.70;8.13;;;;;;;;;;12842553;23;20012;-80
2023/04/09 18:43:25;;;;;;;10.07;7.90;;;;;;;;;;12839233;23;20767;-82
2023/04/09 18:48:28;;;;;;;10.82;8.50;;;;;;;;;;12835120;23;20259;-77
2023/04/09 18:53:29;;;;;;;10.20;8.30;;;;;;;;;;12845176;23;20539;-77
2023/04/09 18:58:32;;;;;;;10.55;7.82;;;;;;;;;;12878883;23;20023;-77
2023/04/09 19:03:32;;;;;;;10.65;8.40;;;;;;;;;;12825054;23;20047;-79
2023/04/09 19:08:36;;;;;;;9.20;7.50;;;;;;;;;;12849647;23;20028;-80
2023/04/09 19:13:36;;;;;;;12.15;8.63;;;;;;;;;;12830271;23;20286;-81
2023/04/09 19:18:37;;;;;;;11.70;8.57;;;;;;;;;;12849907;23;20005;-80
2023/04/09 19:23:38;;;;;;;10.00;8.20;;;;;;;;;;12815587;23;20123;-81
2023/04/09 19:28:38;;;;;;;11.93;8.32;;;;;;;;;;12845665;23;20004;-82
2023/04/09 19:33:40;;;;;;;9.63;7.20;;;;;;;;;;12855732;23;20027;-76
2023/04/09 19:38:42;;;;;;;12.13;8.23;;;;;;;;;;12884249;23;20016;-78
2023/04/09 19:43:47;;;;;;;12.38;8.55;;;;;;;;;;12880186;23;20600;-77
2023/04/09 19:48:49;;;;;;;11.15;8.00;;;;;;;;;;12862813;23;20032;-77
2023/04/09 19:53:51;;;;;;;10.27;8.15;;;;;;;;;;12884760;23;20516;-78
2023/04/09 19:58:52;;;;;;;11.50;9.07;;;;;;;;;;12915498;23;20016;-79
2023/04/09 20:03:54;;;;;;;11.27;8.02;;;;;;;;;;12917841;23;20011;-78
2023/04/09 20:08:54;;;;;;;13.98;9.55;;;;;;;;;;12856370;23;20078;-80
2023/04/09 20:13:56;;;;;;;13.60;9.88;;;;;;;;;;12879603;23;20081;-77
2023/04/09 20:18:56;;;;;;;13.68;9.88;;;;;;;;;;12907420;23;20107;-79
2023/04/09 20:23:59;;;;;;;14.30;10.38;;;;;;;;;;12907312;22;20312;-80
2023/04/09 20:29:00;;;;;;;14.93;10.25;;;;;;;;;;12905756;23;20405;-78
2023/04/09 20:34:01;;;;;;;17.83;10.48;;;;;;;;;;12853389;23;20062;-79
2023/04/09 20:39:01;;;;;;;13.65;9.65;;;;;;;;;;12881981;23;20038;-78
2023/04/09 20:44:02;;;;;;;13.25;9.60;;;;;;;;;;12909800;23;20337;-80
2023/04/09 20:49:03;;;;;;;13.73;10.02;;;;;;;;;;12912495;23;20445;-81
2023/04/09 20:54:04;;;;;;;12.70;8.93;;;;;;;;;;12883949;23;20051;-79
2023/04/09 20:59:05;;;;;;;11.43;8.10;;;;;;;;;;12909893;23;20715;-78
2023/04/09 21:04:06;;;;;;;15.32;9.90;;;;;;;;;;12881582;23;20118;-79
2023/04/09 21:09:08;;;;;;;13.38;9.70;;;;;;;;;;12907626;22;20499;-78
2023/04/09 21:14:11;;;;;;;13.77;9.95;;;;;;;;;;12855901;23;20550;-80
2023/04/09 21:19:11;;;;;;;15.65;10.93;;;;;;;;;;12906354;23;20384;-76
2023/04/09 21:24:13;;;;;;;17.23;10.73;;;;;;;;;;12908137;23;20082;-78
2023/04/09 21:29:14;;;;;;;16.83;11.73;;;;;;;;;;12879099;23;20008;-77
2023/04/09 21:34:18;;;;;;;17.00;10.30;;;;;;;;;;12906413;23;20071;-81
2023/04/09 21:39:20;;;;;;;15.93;10.65;;;;;;;;;;12908474;23;20020;-80
2023/04/09 21:44:20;;;;;;;15.32;10.30;;;;;;;;;;12914625;23;20064;-76
2023/04/09 21:49:21;;;;;;;18.05;11.35;;;;;;;;;;12966166;22;19992;-79
2023/04/09 21:54:21;;;;;;;16.98;11.23;;;;;;;;;;12970960;22;20103;-78
2023/04/09 21:59:21;;;;;;;16.70;10.23;;;;;;;;;;12882923;23;20115;-77
2023/04/09 22:04:23;;;;;;;14.60;9.90;;;;;;;;;;12904192;23;20004;-76
2023/04/09 22:09:24;;;;;;;19.23;11.02;;;;;;;;;;12902023;22;20036;-77
2023/04/09 22:14:28;;;;;;;15.73;10.15;;;;;;;;;;12872088;23;20031;-77
2023/04/09 22:19:29;;;;;;;19.02;11.43;;;;;;;;;;12902502;23;20008;-77
2023/04/09 22:24:29;;;;;;;16.17;11.13;;;;;;;;;;12900375;22;20014;-74
2023/04/09 22:29:31;;;;;;;18.80;11.77;;;;;;;;;;12846220;23;20027;-75
2023/04/09 22:34:32;;;;;;;19.13;11.13;;;;;;;;;;12903262;23;20410;-75
2023/04/09 22:39:32;;;;;;;16.87;10.73;;;;;;;;;;12901572;22;20421;-75
2023/04/09 22:44:34;;;;;;;16.98;10.45;;;;;;;;;;12851768;23;20259;-80
2023/04/09 22:49:34;;;;;;;17.20;11.00;;;;;;;;;;12879586;23;20009;-77
2023/04/09 22:54:37;;;;;;;17.55;10.98;;;;;;;;;;12859165;23;1101346;-77
2023/04/09 22:59:42;;;;;;;17.70;10.88;;;;;;;;;;12879664;23;20391;-77
2023/04/09 23:04:43;;;;;;;21.67;12.52;;;;;;;;;;12905049;23;20039;-77
2023/04/09 23:09:46;;;;;;;21.55;11.95;;;;;;;;;;12903157;22;20023;-77
2023/04/09 23:14:48;;;;;;;20.75;12.80;;;;;;;;;;12875902;23;20032;-77
2023/04/09 23:19:51;;;;;;;22.55;13.95;;;;;;;;;;12903986;23;20016;-77
2023/04/09 23:24:51;;;;;;;21.00;11.95;;;;;;;;;;12876790;23;20330;-76
2023/04/09 23:29:57;;;;;;;21.33;12.00;;;;;;;;;;12905925;23;20016;-76
2023/04/09 23:35:04;;;;;;;17.42;11.00;;;;;;;;;;12886278;22;20086;-77
2023/04/09 23:40:05;;;;;;;18.38;11.00;;;;;;;;;;12909629;23;20707;-75
2023/04/09 23:45:06;;;;;;;16.90;10.70;;;;;;;;;;12903002;23;20469;-76
2023/04/09 23:50:07;;;;;;;18.92;11.95;;;;;;;;;;12875897;23;20055;-75
2023/04/09 23:55:09;;;;;;;17.10;11.00;;;;;;;;;;12906366;23;20024;-77
